createdAt,value
2023-01-03T00:00:24.919Z,8.92
2023-01-03T00:01:24.889Z,8.87
2023-01-03T00:02:24.921Z,8.94
2023-01-03T00:03:24.875Z,8.87
2023-01-03T00:04:27.607Z,8.97
2023-01-03T00:05:24.846Z,8.95
2023-01-03T00:06:24.857Z,8.91
2023-01-03T00:07:24.868Z,8.94
2023-01-03T00:08:24.821Z,8.89
2023-01-03T00:09:24.853Z,8.94
2023-01-03T00:10:24.831Z,8.95
2023-01-03T00:11:24.801Z,8.89
2023-01-03T00:12:30.443Z,8.87
2023-01-03T00:13:26.778Z,8.95
2023-01-03T00:14:24.791Z,8.99
2023-01-03T00:15:24.768Z,8.94
2023-01-03T00:16:24.787Z,8.94
2023-01-03T00:17:24.814Z,8.87
2023-01-03T00:18:24.752Z,8.99
2023-01-03T00:19:24.745Z,8.99
2023-01-03T00:20:24.755Z,8.89
2023-01-03T00:21:24.714Z,8.97
2023-01-03T00:22:24.726Z,8.87
2023-01-03T00:23:24.718Z,8.84
2023-01-03T00:24:24.699Z,8.84
2023-01-03T00:25:24.684Z,8.82
2023-01-03T00:27:04.861Z,8.84
2023-01-03T00:28:05.728Z,8.71
2023-01-03T00:29:04.843Z,8.82
2023-01-03T00:30:04.853Z,8.84
2023-01-03T00:31:04.902Z,8.82
2023-01-03T00:32:04.824Z,8.79
2023-01-03T00:33:04.820Z,8.91
2023-01-03T00:34:04.808Z,8.82
2023-01-03T00:35:05.643Z,8.74
2023-01-03T00:36:04.807Z,8.74
2023-01-03T00:37:04.804Z,8.78
2023-01-03T00:38:06.711Z,8.69
2023-01-03T00:39:05.911Z,8.76
2023-01-03T00:40:05.860Z,8.73
2023-01-03T00:41:05.862Z,8.73
2023-01-03T00:42:05.843Z,8.70
2023-01-03T21:26:11.527Z,5.43
2023-01-03T21:27:11.548Z,5.50
2023-01-03T21:28:11.497Z,5.47
2023-01-03T21:29:11.499Z,5.43
2023-01-03T21:30:11.490Z,5.51
2023-01-03T21:31:11.581Z,5.44
2023-01-03T21:32:11.542Z,5.50
2023-01-03T21:33:12.570Z,5.48
2023-01-03T21:34:12.553Z,5.48
2023-01-03T21:35:12.537Z,5.54
2023-01-03T21:36:15.233Z,5.56
2023-01-03T21:37:13.521Z,5.53
2023-01-03T21:38:12.563Z,5.56
2023-01-03T21:39:12.512Z,5.44
2023-01-03T21:40:12.521Z,5.50
2023-01-03T21:41:12.500Z,5.57
2023-01-03T21:42:12.492Z,5.44
2023-01-03T21:43:12.496Z,5.51
2023-01-03T21:44:12.479Z,5.43
2023-01-03T21:45:12.506Z,5.41
2023-01-03T21:46:12.686Z,5.39
2023-01-03T21:47:12.457Z,5.41
2023-01-03T21:48:12.464Z,5.38
2023-01-03T21:49:13.021Z,5.44
2023-01-03T21:50:12.464Z,5.48
2023-01-03T21:51:12.420Z,5.46
2023-01-03T21:52:12.428Z,5.41
2023-01-03T21:53:12.427Z,5.35
2023-01-03T21:54:12.536Z,5.38
2023-01-03T21:55:12.384Z,5.43
2023-01-03T21:56:12.375Z,5.30
2023-01-03T21:57:15.206Z,5.39
2023-01-03T21:58:13.372Z,5.36
2023-01-03T21:59:12.550Z,5.41
2023-01-03T22:00:12.360Z,5.41
2023-01-03T22:01:12.462Z,5.39
2023-01-03T22:02:12.488Z,5.41
2023-01-03T22:03:12.425Z,5.44
2023-01-03T22:04:12.346Z,5.43
2023-01-03T22:05:12.310Z,5.39
2023-01-03T22:06:12.661Z,5.39
2023-01-03T22:07:12.293Z,5.36
2023-01-03T22:08:12.299Z,5.33
2023-01-03T22:09:12.296Z,5.46
2023-01-03T22:10:12.434Z,5.39
2023-01-03T22:11:12.274Z,5.32
2023-01-03T22:12:15.318Z,5.48
2023-01-03T22:13:12.255Z,5.44
2023-01-03T22:14:12.247Z,5.32
2023-01-03T22:15:12.717Z,5.36
2023-01-03T22:16:12.223Z,5.33
2023-01-03T22:17:12.211Z,5.32
2023-01-03T22:18:12.203Z,5.41
2023-01-03T22:19:12.196Z,5.26
2023-01-03T22:20:12.183Z,5.30
2023-01-03T22:21:13.180Z,5.30
2023-01-03T22:22:12.214Z,5.18
2023-01-03T22:23:12.164Z,5.39
2023-01-03T22:24:12.178Z,5.32
2023-01-03T22:25:12.172Z,5.28
2023-01-03T22:26:12.133Z,5.25
2023-01-03T22:27:12.124Z,5.29
2023-01-03T22:28:12.105Z,5.35
2023-01-03T22:29:12.114Z,5.35
2023-01-03T22:30:12.107Z,5.26
2023-01-03T22:31:12.088Z,5.41
2023-01-03T22:32:12.124Z,5.39
2023-01-03T22:33:12.088Z,5.33
2023-01-03T22:34:12.063Z,5.36
2023-01-03T22:35:12.055Z,5.29
2023-01-03T22:36:12.052Z,5.33
2023-01-03T22:37:12.038Z,5.32
2023-01-03T22:38:12.036Z,5.23
2023-01-03T22:39:12.020Z,5.23
2023-01-03T22:40:12.052Z,5.15
2023-01-03T22:41:12.017Z,5.12
2023-01-03T22:42:17.702Z,5.20
2023-01-03T22:43:14.002Z,5.12
2023-01-03T22:44:11.989Z,5.07
2023-01-03T22:45:12.665Z,5.15
2023-01-03T22:46:12.758Z,5.21
2023-01-03T22:47:11.962Z,5.10
2023-01-03T22:48:12.591Z,5.10
2023-01-03T22:49:11.973Z,5.07
2023-01-03T22:50:11.946Z,5.10
2023-01-03T22:51:11.976Z,5.10
2023-01-03T22:52:11.916Z,5.14
2023-01-03T22:53:11.916Z,5.10
2023-01-03T22:54:11.902Z,5.08
2023-01-03T22:55:11.923Z,5.15
2023-01-03T22:56:11.894Z,5.10
2023-01-03T22:57:11.901Z,5.08
2023-01-03T22:58:11.874Z,5.17
2023-01-03T22:59:11.866Z,5.15
2023-01-03T23:00:11.855Z,5.11
2023-01-03T23:01:11.933Z,5.08
2023-01-03T23:02:11.997Z,5.10
2023-01-03T23:03:11.849Z,5.08
2023-01-03T23:04:11.931Z,5.05
2023-01-03T23:05:11.823Z,5.08
2023-01-03T23:06:11.813Z,5.02
2023-01-03T23:07:11.812Z,5.02
2023-01-03T23:08:11.796Z,5.12
2023-01-03T23:09:11.793Z,5.04
2023-01-03T23:10:11.796Z,4.94
2023-01-03T23:11:11.766Z,4.96
2023-01-03T23:12:11.836Z,4.86
2023-01-03T23:13:11.744Z,4.82
2023-01-03T23:14:11.775Z,4.93
2023-01-03T23:15:11.740Z,4.92
2023-01-03T23:16:11.787Z,5.05
2023-01-03T23:17:11.797Z,4.97
2023-01-03T23:18:11.725Z,5.00
2023-01-03T23:19:11.734Z,5.00
2023-01-03T23:20:11.695Z,5.08
2023-01-03T23:21:11.691Z,5.00
2023-01-03T23:22:11.690Z,5.12
2023-01-03T23:23:11.664Z,5.05
2023-01-03T23:24:11.658Z,5.10
2023-01-03T23:25:11.674Z,5.08
2023-01-03T23:26:11.638Z,5.05
2023-01-03T23:27:11.635Z,5.00
2023-01-03T23:28:12.588Z,5.05
2023-01-03T23:29:11.636Z,5.00
2023-01-03T23:30:11.623Z,5.04
2023-01-03T23:31:11.662Z,5.07
2023-01-03T23:32:11.603Z,5.05
2023-01-03T23:33:11.586Z,4.99
2023-01-03T23:34:11.599Z,5.11
2023-01-03T23:35:11.568Z,5.08
2023-01-03T23:36:11.566Z,5.05
2023-01-03T23:37:11.555Z,5.07
2023-01-03T23:38:11.542Z,5.14
2023-01-03T23:39:11.535Z,5.00
2023-01-03T23:40:11.528Z,4.97
2023-01-03T23:41:11.528Z,4.92
2023-01-03T23:42:11.516Z,4.86
2023-01-03T23:43:11.496Z,4.86
2023-01-03T23:44:11.494Z,4.90
2023-01-03T23:45:11.518Z,4.89
2023-01-03T23:46:11.747Z,4.93
2023-01-03T23:47:12.792Z,4.90
2023-01-03T23:48:12.465Z,4.86
2023-01-03T23:49:11.459Z,4.84
2023-01-03T23:50:11.446Z,4.96
2023-01-03T23:51:11.460Z,4.99
2023-01-03T23:52:11.456Z,5.00
2023-01-03T23:53:11.457Z,4.99
2023-01-03T23:54:11.425Z,5.02
2023-01-03T23:55:12.840Z,5.05
2023-01-03T23:56:12.418Z,5.10
2023-01-03T23:57:11.466Z,5.15
2023-01-03T23:58:11.395Z,5.23
2023-01-03T23:59:11.375Z,5.23
